Terminal Aerodrome Forecast
Issued by NWS

Home | Current Version | Previous Version | Graphics & Text | Print | Product List | Glossary On
Versions: 1 2 3 4 5 6 7 8 9 10 11 12 13 14 15 16 17 18 19 20 21 22 23 24 25 26
000
FTUS43 KICT 201232 AAA
TAFSLN
TAF AMD
KSLN 201232Z 2013/2112 17010G20KT P6SM SCT009 BKN012
      TEMPO 2013/2015 BKN012
     FM201500 17007KT P6SM BKN015
     FM202100 11007KT P6SM SCT035
     FM210300 07008KT P6SM BKN040=

USA.gov is the U.S. government's official web portal to all federal, state and local government web resources and services.